EDDC/DRS METAR and TAF weather

Enter ICAO airport designator
Station Type Date Time Source
EDDC METAR 2019/06/27 02:20 UTC NOAA

EDDC 270220Z 32008KT 290V350 CAVOK 21/09 Q1023


Station Type Date Time Source
EDDC Decoded METAR 2019/06/27 02:20 UTC NOAA

Dresden-Klotzsche, Germany (EDDC) 51-08N 013-45E 232M
Jun 26, 2019 - 10:20 PM EDT / 2019.06.27 0220 UTC
Wind: from the NW (320 degrees) at 9 MPH (8 KT) (direction variable):0
Visibility: greater than 7 mile(s):0
Temperature: 69 F (21 C)
Dew Point: 48 F (9 C)
Relative Humidity: 46%
Pressure (altimeter): 30.21 in. Hg (1023 hPa)
ob: EDDC 270220Z 32008KT 290V350 CAVOK 21/09 Q1023
cycle: 2

Station Type Date Time Source
EDDC TAF 2019/06/26 18:27 UTC NOAA

TAF EDDC 261700Z 2618/2718 30010KT CAVOK
BECMG 2618/2621 30005KT
BECMG 2703/2705 30011KT

Example: see airport list